sensor_id;sensor_type;location;lat;lon;timestamp;P1;durP1;ratioP1;P2;durP2;ratioP2
71814;SDS011;59659;41.520;23.794;2023-04-25T00:00:58;2.37;;;1.60;;
71814;SDS011;59659;41.520;23.794;2023-04-25T00:02:10;4.28;;;1.75;;
71814;SDS011;59659;41.520;23.794;2023-04-25T00:03:22;2.37;;;1.20;;
71814;SDS011;59659;41.520;23.794;2023-04-25T00:04:36;3.38;;;2.15;;
71814;SDS011;59659;41.520;23.794;2023-04-25T00:05:49;2.30;;;1.52;;
71814;SDS011;59659;41.520;23.794;2023-04-25T00:07:03;2.08;;;1.35;;
71814;SDS011;59659;41.520;23.794;2023-04-25T00:08:14;1.10;;;1.00;;
71814;SDS011;59659;41.520;23.794;2023-04-25T00:09:26;2.05;;;1.17;;
71814;SDS011;59659;41.520;23.794;2023-04-25T00:10:38;1.20;;;1.08;;
71814;SDS011;59659;41.520;23.794;2023-04-25T00:11:49;2.08;;;1.40;;
71814;SDS011;59659;41.520;23.794;2023-04-25T00:13:01;1.23;;;0.82;;
71814;SDS011;59659;41.520;23.794;2023-04-25T00:14:13;1.60;;;0.88;;
71814;SDS011;59659;41.520;23.794;2023-04-25T00:15:25;1.27;;;0.80;;
71814;SDS011;59659;41.520;23.794;2023-04-25T00:16:37;1.73;;;1.15;;
71814;SDS011;59659;41.520;23.794;2023-04-25T00:17:48;1.80;;;1.10;;
71814;SDS011;59659;41.520;23.794;2023-04-25T00:19:00;3.05;;;1.30;;
71814;SDS011;59659;41.520;23.794;2023-04-25T00:20:13;4.07;;;1.40;;
71814;SDS011;59659;41.520;23.794;2023-04-25T00:21:25;1.95;;;1.27;;
71814;SDS011;59659;41.520;23.794;2023-04-25T00:22:36;1.98;;;1.17;;
71814;SDS011;59659;41.520;23.794;2023-04-25T00:23:54;1.15;;;0.90;;
71814;SDS011;59659;41.520;23.794;2023-04-25T00:25:06;1.65;;;1.23;;
71814;SDS011;59659;41.520;23.794;2023-04-25T00:26:18;1.55;;;0.98;;
71814;SDS011;59659;41.520;23.794;2023-04-25T00:27:29;2.40;;;1.27;;
71814;SDS011;59659;41.520;23.794;2023-04-25T00:28:41;1.10;;;0.98;;
71814;SDS011;59659;41.520;23.794;2023-04-25T00:29:52;1.85;;;1.38;;
71814;SDS011;59659;41.520;23.794;2023-04-25T00:31:03;1.95;;;0.80;;
71814;SDS011;59659;41.520;23.794;2023-04-25T00:32:15;3.63;;;1.02;;
71814;SDS011;59659;41.520;23.794;2023-04-25T00:33:26;2.08;;;1.15;;
71814;SDS011;59659;41.520;23.794;2023-04-25T00:34:38;2.40;;;0.95;;
71814;SDS011;59659;41.520;23.794;2023-04-25T00:35:49;1.10;;;0.90;;
71814;SDS011;59659;41.520;23.794;2023-04-25T00:37:01;4.95;;;0.98;;
71814;SDS011;59659;41.520;23.794;2023-04-25T00:38:16;2.05;;;1.35;;
71814;SDS011;59659;41.520;23.794;2023-04-25T00:39:27;1.77;;;1.27;;
71814;SDS011;59659;41.520;23.794;2023-04-25T00:40:39;1.80;;;1.15;;
71814;SDS011;59659;41.520;23.794;2023-04-25T00:41:50;1.23;;;0.85;;
71814;SDS011;59659;41.520;23.794;2023-04-25T00:43:04;1.08;;;0.80;;
71814;SDS011;59659;41.520;23.794;2023-04-25T00:44:15;1.52;;;1.10;;
71814;SDS011;59659;41.520;23.794;2023-04-25T00:45:28;4.45;;;1.40;;
71814;SDS011;59659;41.520;23.794;2023-04-25T00:46:43;1.95;;;1.23;;
71814;SDS011;59659;41.520;23.794;2023-04-25T00:47:56;3.25;;;1.30;;
71814;SDS011;59659;41.520;23.794;2023-04-25T00:49:07;1.92;;;0.90;;
71814;SDS011;59659;41.520;23.794;2023-04-25T00:50:19;3.13;;;1.90;;
71814;SDS011;59659;41.520;23.794;2023-04-25T00:51:30;1.75;;;1.30;;
71814;SDS011;59659;41.520;23.794;2023-04-25T00:52:44;2.47;;;1.20;;
71814;SDS011;59659;41.520;23.794;2023-04-25T00:53:55;3.88;;;1.13;;
71814;SDS011;59659;41.520;23.794;2023-04-25T00:55:07;1.52;;;0.85;;
71814;SDS011;59659;41.520;23.794;2023-04-25T00:56:19;1.85;;;0.90;;
71814;SDS011;59659;41.520;23.794;2023-04-25T00:57:31;3.38;;;1.63;;
71814;SDS011;59659;41.520;23.794;2023-04-25T00:58:42;2.60;;;1.58;;
71814;SDS011;59659;41.520;23.794;2023-04-25T00:59:55;3.45;;;1.33;;
71814;SDS011;59659;41.520;23.794;2023-04-25T01:01:06;2.17;;;1.38;;
71814;SDS011;59659;41.520;23.794;2023-04-25T01:02:19;2.17;;;1.50;;
71814;SDS011;59659;41.520;23.794;2023-04-25T01:03:34;2.30;;;1.27;;
71814;SDS011;59659;41.520;23.794;2023-04-25T01:04:52;2.65;;;1.40;;
71814;SDS011;59659;41.520;23.794;2023-04-25T01:06:04;1.77;;;1.00;;
71814;SDS011;59659;41.520;23.794;2023-04-25T01:07:15;2.15;;;1.42;;
71814;SDS011;59659;41.520;23.794;2023-04-25T01:08:27;2.65;;;1.35;;
71814;SDS011;59659;41.520;23.794;2023-04-25T01:09:39;2.65;;;1.40;;
71814;SDS011;59659;41.520;23.794;2023-04-25T01:10:50;1.70;;;1.27;;
71814;SDS011;59659;41.520;23.794;2023-04-25T01:12:02;1.27;;;0.95;;
71814;SDS011;59659;41.520;23.794;2023-04-25T01:13:14;1.98;;;1.15;;
71814;SDS011;59659;41.520;23.794;2023-04-25T01:14:25;2.03;;;1.05;;
71814;SDS011;59659;41.520;23.794;2023-04-25T01:15:37;7.30;;;1.40;;
71814;SDS011;59659;41.520;23.794;2023-04-25T01:16:48;1.98;;;1.02;;
71814;SDS011;59659;41.520;23.794;2023-04-25T01:18:00;2.95;;;0.90;;
71814;SDS011;59659;41.520;23.794;2023-04-25T01:19:13;2.85;;;0.98;;
71814;SDS011;59659;41.520;23.794;2023-04-25T01:20:27;2.05;;;0.93;;
71814;SDS011;59659;41.520;23.794;2023-04-25T01:21:39;5.85;;;1.52;;
71814;SDS011;59659;41.520;23.794;2023-04-25T01:22:51;2.70;;;1.27;;
71814;SDS011;59659;41.520;23.794;2023-04-25T01:24:03;3.80;;;1.73;;
71814;SDS011;59659;41.520;23.794;2023-04-25T01:25:15;3.10;;;1.50;;
71814;SDS011;59659;41.520;23.794;2023-04-25T01:26:27;2.35;;;1.30;;
71814;SDS011;59659;41.520;23.794;2023-04-25T01:27:38;2.33;;;1.40;;
71814;SDS011;59659;41.520;23.794;2023-04-25T01:28:50;3.20;;;1.33;;
71814;SDS011;59659;41.520;23.794;2023-04-25T01:30:03;2.47;;;1.77;;
71814;SDS011;59659;41.520;23.794;2023-04-25T01:31:14;1.52;;;0.95;;
71814;SDS011;59659;41.520;23.794;2023-04-25T01:32:26;1.88;;;1.20;;
71814;SDS011;59659;41.520;23.794;2023-04-25T01:33:38;2.13;;;1.40;;
71814;SDS011;59659;41.520;23.794;2023-04-25T01:34:49;2.15;;;1.25;;
71814;SDS011;59659;41.520;23.794;2023-04-25T01:36:01;2.05;;;1.30;;
71814;SDS011;59659;41.520;23.794;2023-04-25T01:37:12;1.50;;;1.10;;
71814;SDS011;59659;41.520;23.794;2023-04-25T01:38:24;2.40;;;1.13;;
71814;SDS011;59659;41.520;23.794;2023-04-25T01:39:35;2.28;;;1.30;;
71814;SDS011;59659;41.520;23.794;2023-04-25T01:40:47;2.22;;;1.38;;
71814;SDS011;59659;41.520;23.794;2023-04-25T01:42:00;2.47;;;1.33;;
71814;SDS011;59659;41.520;23.794;2023-04-25T01:43:11;2.17;;;1.52;;
71814;SDS011;59659;41.520;23.794;2023-04-25T01:44:23;2.45;;;1.25;;
71814;SDS011;59659;41.520;23.794;2023-04-25T01:45:35;1.92;;;1.10;;
71814;SDS011;59659;41.520;23.794;2023-04-25T01:46:47;2.55;;;1.48;;
71814;SDS011;59659;41.520;23.794;2023-04-25T01:47:59;2.63;;;1.50;;
71814;SDS011;59659;41.520;23.794;2023-04-25T01:49:10;3.90;;;2.22;;
71814;SDS011;59659;41.520;23.794;2023-04-25T01:50:22;11.98;;;7.28;;
71814;SDS011;59659;41.520;23.794;2023-04-25T01:51:33;11.07;;;7.53;;
71814;SDS011;59659;41.520;23.794;2023-04-25T01:52:45;8.73;;;5.82;;
71814;SDS011;59659;41.520;23.794;2023-04-25T01:53:57;6.55;;;4.63;;
71814;SDS011;59659;41.520;23.794;2023-04-25T01:55:11;6.20;;;3.17;;
71814;SDS011;59659;41.520;23.794;2023-04-25T01:56:22;3.50;;;2.30;;
71814;SDS011;59659;41.520;23.794;2023-04-25T01:57:34;5.22;;;2.47;;
71814;SDS011;59659;41.520;23.794;2023-04-25T01:58:45;5.15;;;3.45;;
71814;SDS011;59659;41.520;23.794;2023-04-25T01:59:58;5.22;;;4.38;;
71814;SDS011;59659;41.520;23.794;2023-04-25T02:01:10;8.10;;;5.00;;
71814;SDS011;59659;41.520;23.794;2023-04-25T02:02:21;6.78;;;4.15;;
71814;SDS011;59659;41.520;23.794;2023-04-25T02:03:34;3.63;;;2.90;;
71814;SDS011;59659;41.520;23.794;2023-04-25T02:04:46;5.65;;;3.65;;
71814;SDS011;59659;41.520;23.794;2023-04-25T02:05:57;3.30;;;1.90;;
71814;SDS011;59659;41.520;23.794;2023-04-25T02:07:09;3.22;;;2.08;;
71814;SDS011;59659;41.520;23.794;2023-04-25T02:08:20;2.95;;;1.92;;
71814;SDS011;59659;41.520;23.794;2023-04-25T02:09:32;4.13;;;2.15;;
71814;SDS011;59659;41.520;23.794;2023-04-25T02:10:43;4.25;;;1.73;;
71814;SDS011;59659;41.520;23.794;2023-04-25T02:11:55;3.13;;;1.58;;
71814;SDS011;59659;41.520;23.794;2023-04-25T02:13:06;4.50;;;1.88;;
71814;SDS011;59659;41.520;23.794;2023-04-25T02:14:18;2.40;;;1.65;;
71814;SDS011;59659;41.520;23.794;2023-04-25T02:15:29;3.53;;;1.65;;
71814;SDS011;59659;41.520;23.794;2023-04-25T02:16:41;2.53;;;1.60;;
71814;SDS011;59659;41.520;23.794;2023-04-25T02:17:55;2.40;;;1.40;;
71814;SDS011;59659;41.520;23.794;2023-04-25T02:19:07;2.75;;;1.42;;
71814;SDS011;59659;41.520;23.794;2023-04-25T02:20:20;4.13;;;1.52;;
71814;SDS011;59659;41.520;23.794;2023-04-25T02:21:32;2.33;;;1.50;;
71814;SDS011;59659;41.520;23.794;2023-04-25T02:22:43;5.55;;;1.85;;
71814;SDS011;59659;41.520;23.794;2023-04-25T02:23:55;1.92;;;1.40;;
71814;SDS011;59659;41.520;23.794;2023-04-25T02:25:06;2.30;;;1.60;;
71814;SDS011;59659;41.520;23.794;2023-04-25T02:26:18;3.83;;;1.45;;
71814;SDS011;59659;41.520;23.794;2023-04-25T02:27:29;3.10;;;1.45;;
71814;SDS011;59659;41.520;23.794;2023-04-25T02:28:41;3.92;;;1.60;;
71814;SDS011;59659;41.520;23.794;2023-04-25T02:29:52;3.40;;;2.15;;
71814;SDS011;59659;41.520;23.794;2023-04-25T02:31:04;4.70;;;2.83;;
71814;SDS011;59659;41.520;23.794;2023-04-25T02:32:16;3.88;;;2.80;;
71814;SDS011;59659;41.520;23.794;2023-04-25T02:33:27;5.28;;;2.58;;
71814;SDS011;59659;41.520;23.794;2023-04-25T02:34:38;4.95;;;2.95;;
71814;SDS011;59659;41.520;23.794;2023-04-25T02:35:50;3.58;;;2.30;;
71814;SDS011;59659;41.520;23.794;2023-04-25T02:37:02;2.97;;;2.30;;
71814;SDS011;59659;41.520;23.794;2023-04-25T02:38:13;5.80;;;1.90;;
71814;SDS011;59659;41.520;23.794;2023-04-25T02:39:25;3.92;;;2.22;;
71814;SDS011;59659;41.520;23.794;2023-04-25T02:40:38;4.05;;;1.45;;
71814;SDS011;59659;41.520;23.794;2023-04-25T02:41:49;4.72;;;2.22;;
71814;SDS011;59659;41.520;23.794;2023-04-25T02:43:01;2.45;;;1.73;;
71814;SDS011;59659;41.520;23.794;2023-04-25T02:44:12;1.90;;;1.70;;
71814;SDS011;59659;41.520;23.794;2023-04-25T02:45:24;2.33;;;1.42;;
71814;SDS011;59659;41.520;23.794;2023-04-25T02:46:35;2.42;;;1.65;;
71814;SDS011;59659;41.520;23.794;2023-04-25T02:47:50;2.70;;;2.00;;
71814;SDS011;59659;41.520;23.794;2023-04-25T02:49:01;3.25;;;1.88;;
71814;SDS011;59659;41.520;23.794;2023-04-25T02:50:12;3.15;;;1.73;;
71814;SDS011;59659;41.520;23.794;2023-04-25T02:51:24;7.72;;;1.88;;
71814;SDS011;59659;41.520;23.794;2023-04-25T02:52:36;2.67;;;1.77;;
71814;SDS011;59659;41.520;23.794;2023-04-25T02:53:47;1.95;;;1.50;;
71814;SDS011;59659;41.520;23.794;2023-04-25T02:54:59;5.63;;;2.10;;
71814;SDS011;59659;41.520;23.794;2023-04-25T02:56:10;3.95;;;1.92;;
71814;SDS011;59659;41.520;23.794;2023-04-25T02:57:22;2.47;;;1.27;;
71814;SDS011;59659;41.520;23.794;2023-04-25T02:58:33;2.65;;;1.55;;
71814;SDS011;59659;41.520;23.794;2023-04-25T02:59:45;4.63;;;2.03;;
71814;SDS011;59659;41.520;23.794;2023-04-25T03:00:56;2.55;;;1.52;;
71814;SDS011;59659;41.520;23.794;2023-04-25T03:02:08;2.65;;;1.70;;
71814;SDS011;59659;41.520;23.794;2023-04-25T03:03:19;3.47;;;1.77;;
71814;SDS011;59659;41.520;23.794;2023-04-25T03:04:33;2.75;;;1.75;;
71814;SDS011;59659;41.520;23.794;2023-04-25T03:05:44;3.25;;;1.80;;
71814;SDS011;59659;41.520;23.794;2023-04-25T03:06:58;3.75;;;1.95;;
71814;SDS011;59659;41.520;23.794;2023-04-25T03:08:09;2.78;;;1.58;;
71814;SDS011;59659;41.520;23.794;2023-04-25T03:09:20;2.78;;;1.48;;
71814;SDS011;59659;41.520;23.794;2023-04-25T03:10:32;2.13;;;1.38;;
71814;SDS011;59659;41.520;23.794;2023-04-25T03:11:44;5.90;;;2.25;;
71814;SDS011;59659;41.520;23.794;2023-04-25T03:12:56;12.30;;;3.80;;
71814;SDS011;59659;41.520;23.794;2023-04-25T03:14:07;10.35;;;4.72;;
71814;SDS011;59659;41.520;23.794;2023-04-25T03:15:18;6.05;;;3.03;;
71814;SDS011;59659;41.520;23.794;2023-04-25T03:16:31;4.13;;;1.88;;
71814;SDS011;59659;41.520;23.794;2023-04-25T03:17:42;3.42;;;1.75;;
71814;SDS011;59659;41.520;23.794;2023-04-25T03:18:54;3.35;;;1.80;;
71814;SDS011;59659;41.520;23.794;2023-04-25T03:20:06;4.18;;;2.20;;
71814;SDS011;59659;41.520;23.794;2023-04-25T03:21:19;2.63;;;1.80;;
71814;SDS011;59659;41.520;23.794;2023-04-25T03:22:30;4.38;;;1.98;;
71814;SDS011;59659;41.520;23.794;2023-04-25T03:23:42;6.00;;;2.90;;
71814;SDS011;59659;41.520;23.794;2023-04-25T03:24:53;4.63;;;2.88;;
71814;SDS011;59659;41.520;23.794;2023-04-25T03:26:05;4.63;;;2.78;;
71814;SDS011;59659;41.520;23.794;2023-04-25T03:27:17;6.32;;;3.40;;
71814;SDS011;59659;41.520;23.794;2023-04-25T03:28:28;5.35;;;3.17;;
71814;SDS011;59659;41.520;23.794;2023-04-25T03:29:40;3.28;;;2.40;;
71814;SDS011;59659;41.520;23.794;2023-04-25T03:30:52;3.72;;;2.42;;
71814;SDS011;59659;41.520;23.794;2023-04-25T03:32:03;3.42;;;2.30;;
71814;SDS011;59659;41.520;23.794;2023-04-25T03:33:15;6.88;;;2.97;;
71814;SDS011;59659;41.520;23.794;2023-04-25T03:34:26;7.55;;;3.38;;
71814;SDS011;59659;41.520;23.794;2023-04-25T03:35:38;5.53;;;3.45;;
71814;SDS011;59659;41.520;23.794;2023-04-25T03:36:49;8.88;;;4.45;;
71814;SDS011;59659;41.520;23.794;2023-04-25T03:38:01;14.93;;;7.88;;
71814;SDS011;59659;41.520;23.794;2023-04-25T03:39:12;11.23;;;6.18;;
71814;SDS011;59659;41.520;23.794;2023-04-25T03:40:24;9.98;;;5.20;;
71814;SDS011;59659;41.520;23.794;2023-04-25T03:41:35;13.13;;;5.20;;
71814;SDS011;59659;41.520;23.794;2023-04-25T03:42:47;8.02;;;3.85;;
71814;SDS011;59659;41.520;23.794;2023-04-25T03:43:58;6.28;;;3.80;;
71814;SDS011;59659;41.520;23.794;2023-04-25T03:45:09;5.55;;;2.92;;
71814;SDS011;59659;41.520;23.794;2023-04-25T03:46:21;8.73;;;3.88;;
71814;SDS011;59659;41.520;23.794;2023-04-25T03:47:33;10.80;;;4.28;;
71814;SDS011;59659;41.520;23.794;2023-04-25T03:48:44;15.23;;;7.75;;
71814;SDS011;59659;41.520;23.794;2023-04-25T03:49:56;25.00;;;11.27;;
71814;SDS011;59659;41.520;23.794;2023-04-25T03:51:07;23.10;;;11.85;;
71814;SDS011;59659;41.520;23.794;2023-04-25T03:52:18;22.63;;;11.32;;
71814;SDS011;59659;41.520;23.794;2023-04-25T03:53:30;11.15;;;6.10;;
71814;SDS011;59659;41.520;23.794;2023-04-25T03:54:41;7.97;;;4.03;;
71814;SDS011;59659;41.520;23.794;2023-04-25T03:55:53;7.63;;;3.65;;
71814;SDS011;59659;41.520;23.794;2023-04-25T03:57:04;6.68;;;2.67;;
71814;SDS011;59659;41.520;23.794;2023-04-25T03:58:16;4.55;;;2.88;;
71814;SDS011;59659;41.520;23.794;2023-04-25T03:59:27;5.57;;;3.10;;
71814;SDS011;59659;41.520;23.794;2023-04-25T04:00:39;7.45;;;3.08;;
71814;SDS011;59659;41.520;23.794;2023-04-25T04:01:50;6.75;;;3.58;;
71814;SDS011;59659;41.520;23.794;2023-04-25T04:03:02;6.32;;;3.70;;
71814;SDS011;59659;41.520;23.794;2023-04-25T04:04:13;5.20;;;3.25;;
71814;SDS011;59659;41.520;23.794;2023-04-25T04:05:25;5.75;;;2.65;;
71814;SDS011;59659;41.520;23.794;2023-04-25T04:06:37;4.10;;;2.78;;
71814;SDS011;59659;41.520;23.794;2023-04-25T04:07:49;3.42;;;2.22;;
71814;SDS011;59659;41.520;23.794;2023-04-25T04:09:00;5.03;;;3.42;;
71814;SDS011;59659;41.520;23.794;2023-04-25T04:10:12;3.38;;;2.45;;
71814;SDS011;59659;41.520;23.794;2023-04-25T04:11:23;4.20;;;2.78;;
71814;SDS011;59659;41.520;23.794;2023-04-25T04:12:35;6.55;;;2.67;;
71814;SDS011;59659;41.520;23.794;2023-04-25T04:13:48;8.73;;;2.85;;
71814;SDS011;59659;41.520;23.794;2023-04-25T04:14:59;6.03;;;3.17;;
71814;SDS011;59659;41.520;23.794;2023-04-25T04:16:11;8.88;;;3.72;;
71814;SDS011;59659;41.520;23.794;2023-04-25T04:17:22;5.25;;;3.53;;
71814;SDS011;59659;41.520;23.794;2023-04-25T04:18:34;14.20;;;7.85;;
71814;SDS011;59659;41.520;23.794;2023-04-25T04:19:45;12.57;;;8.65;;
71814;SDS011;59659;41.520;23.794;2023-04-25T04:20:57;10.80;;;7.35;;
71814;SDS011;59659;41.520;23.794;2023-04-25T04:22:09;7.07;;;4.05;;
71814;SDS011;59659;41.520;23.794;2023-04-25T04:23:21;6.47;;;3.38;;
71814;SDS011;59659;41.520;23.794;2023-04-25T04:24:33;14.68;;;5.85;;
71814;SDS011;59659;41.520;23.794;2023-04-25T04:25:45;9.10;;;4.78;;
71814;SDS011;59659;41.520;23.794;2023-04-25T04:26:58;11.32;;;4.15;;
71814;SDS011;59659;41.520;23.794;2023-04-25T04:28:10;14.73;;;4.90;;
71814;SDS011;59659;41.520;23.794;2023-04-25T04:29:22;13.25;;;4.15;;
71814;SDS011;59659;41.520;23.794;2023-04-25T04:30:33;8.43;;;4.20;;
71814;SDS011;59659;41.520;23.794;2023-04-25T04:31:48;6.22;;;3.13;;
71814;SDS011;59659;41.520;23.794;2023-04-25T04:33:00;4.72;;;3.00;;
71814;SDS011;59659;41.520;23.794;2023-04-25T04:34:12;17.02;;;8.00;;
71814;SDS011;59659;41.520;23.794;2023-04-25T04:35:24;9.05;;;4.35;;
71814;SDS011;59659;41.520;23.794;2023-04-25T04:36:36;3.63;;;2.65;;
71814;SDS011;59659;41.520;23.794;2023-04-25T04:37:47;3.58;;;2.42;;
71814;SDS011;59659;41.520;23.794;2023-04-25T04:38:59;4.78;;;2.83;;
71814;SDS011;59659;41.520;23.794;2023-04-25T04:40:10;4.53;;;2.72;;
71814;SDS011;59659;41.520;23.794;2023-04-25T04:41:22;3.20;;;2.30;;
71814;SDS011;59659;41.520;23.794;2023-04-25T04:42:34;3.55;;;2.00;;
71814;SDS011;59659;41.520;23.794;2023-04-25T04:43:47;6.40;;;3.15;;
71814;SDS011;59659;41.520;23.794;2023-04-25T04:44:59;4.82;;;2.10;;
71814;SDS011;59659;41.520;23.794;2023-04-25T04:46:12;4.97;;;2.58;;
71814;SDS011;59659;41.520;23.794;2023-04-25T04:47:24;5.65;;;2.35;;
71814;SDS011;59659;41.520;23.794;2023-04-25T04:48:37;5.50;;;2.65;;
71814;SDS011;59659;41.520;23.794;2023-04-25T04:49:51;14.85;;;2.75;;
71814;SDS011;59659;41.520;23.794;2023-04-25T04:51:02;6.00;;;2.25;;
71814;SDS011;59659;41.520;23.794;2023-04-25T04:52:14;5.63;;;2.55;;
71814;SDS011;59659;41.520;23.794;2023-04-25T04:53:25;2.88;;;2.10;;
71814;SDS011;59659;41.520;23.794;2023-04-25T04:54:37;5.22;;;2.30;;
71814;SDS011;59659;41.520;23.794;2023-04-25T04:55:48;3.95;;;2.55;;
71814;SDS011;59659;41.520;23.794;2023-04-25T04:57:01;3.40;;;2.33;;
71814;SDS011;59659;41.520;23.794;2023-04-25T04:58:12;4.85;;;2.67;;
71814;SDS011;59659;41.520;23.794;2023-04-25T04:59:24;10.32;;;5.25;;
71814;SDS011;59659;41.520;23.794;2023-04-25T05:00:35;12.48;;;4.57;;
71814;SDS011;59659;41.520;23.794;2023-04-25T05:01:47;10.38;;;4.63;;
71814;SDS011;59659;41.520;23.794;2023-04-25T05:02:58;9.02;;;4.05;;
71814;SDS011;59659;41.520;23.794;2023-04-25T05:04:10;4.30;;;2.38;;
71814;SDS011;59659;41.520;23.794;2023-04-25T05:05:22;9.77;;;4.25;;
71814;SDS011;59659;41.520;23.794;2023-04-25T05:06:33;9.52;;;4.95;;
71814;SDS011;59659;41.520;23.794;2023-04-25T05:07:45;5.55;;;3.10;;
71814;SDS011;59659;41.520;23.794;2023-04-25T05:08:56;4.35;;;2.83;;
71814;SDS011;59659;41.520;23.794;2023-04-25T05:10:08;4.55;;;2.45;;
71814;SDS011;59659;41.520;23.794;2023-04-25T05:11:20;3.22;;;2.13;;
71814;SDS011;59659;41.520;23.794;2023-04-25T05:12:32;5.72;;;2.63;;
71814;SDS011;59659;41.520;23.794;2023-04-25T05:13:46;6.35;;;3.28;;
71814;SDS011;59659;41.520;23.794;2023-04-25T05:14:57;4.28;;;2.40;;
71814;SDS011;59659;41.520;23.794;2023-04-25T05:16:09;18.05;;;7.60;;
71814;SDS011;59659;41.520;23.794;2023-04-25T05:17:20;11.73;;;5.10;;
71814;SDS011;59659;41.520;23.794;2023-04-25T05:18:32;8.25;;;3.85;;
71814;SDS011;59659;41.520;23.794;2023-04-25T05:19:43;4.30;;;2.15;;
71814;SDS011;59659;41.520;23.794;2023-04-25T05:20:55;4.28;;;2.25;;
71814;SDS011;59659;41.520;23.794;2023-04-25T05:22:06;8.15;;;3.58;;
71814;SDS011;59659;41.520;23.794;2023-04-25T05:23:18;92.88;;;36.05;;
71814;SDS011;59659;41.520;23.794;2023-04-25T05:24:29;27.92;;;12.32;;
71814;SDS011;59659;41.520;23.794;2023-04-25T05:25:41;56.53;;;18.60;;
71814;SDS011;59659;41.520;23.794;2023-04-25T05:26:53;85.68;;;25.52;;
71814;SDS011;59659;41.520;23.794;2023-04-25T05:28:04;14.40;;;5.32;;
71814;SDS011;59659;41.520;23.794;2023-04-25T05:29:16;9.20;;;3.42;;
71814;SDS011;59659;41.520;23.794;2023-04-25T05:30:28;4.80;;;1.67;;
71814;SDS011;59659;41.520;23.794;2023-04-25T05:31:39;3.78;;;1.77;;
71814;SDS011;59659;41.520;23.794;2023-04-25T05:32:51;2.72;;;1.60;;
71814;SDS011;59659;41.520;23.794;2023-04-25T05:34:03;2.60;;;1.58;;
71814;SDS011;59659;41.520;23.794;2023-04-25T05:35:14;5.00;;;2.33;;
71814;SDS011;59659;41.520;23.794;2023-04-25T05:36:26;34.53;;;16.73;;
71814;SDS011;59659;41.520;23.794;2023-04-25T05:37:38;35.67;;;15.85;;
71814;SDS011;59659;41.520;23.794;2023-04-25T05:38:49;28.27;;;12.00;;
71814;SDS011;59659;41.520;23.794;2023-04-25T05:40:01;30.58;;;14.63;;
71814;SDS011;59659;41.520;23.794;2023-04-25T05:41:13;10.38;;;5.38;;
71814;SDS011;59659;41.520;23.794;2023-04-25T05:42:24;5.38;;;3.63;;
71814;SDS011;59659;41.520;23.794;2023-04-25T05:43:36;6.57;;;4.25;;
71814;SDS011;59659;41.520;23.794;2023-04-25T05:44:47;5.47;;;3.63;;
71814;SDS011;59659;41.520;23.794;2023-04-25T05:45:59;3.90;;;2.47;;
71814;SDS011;59659;41.520;23.794;2023-04-25T05:47:10;4.38;;;2.75;;
71814;SDS011;59659;41.520;23.794;2023-04-25T05:48:22;4.95;;;3.00;;
71814;SDS011;59659;41.520;23.794;2023-04-25T05:49:34;3.83;;;1.90;;
71814;SDS011;59659;41.520;23.794;2023-04-25T05:50:45;2.93;;;1.83;;
71814;SDS011;59659;41.520;23.794;2023-04-25T05:51:57;5.10;;;2.63;;
71814;SDS011;59659;41.520;23.794;2023-04-25T05:53:08;5.05;;;2.50;;
71814;SDS011;59659;41.520;23.794;2023-04-25T05:54:20;3.65;;;2.20;;
71814;SDS011;59659;41.520;23.794;2023-04-25T05:55:31;6.10;;;1.95;;
71814;SDS011;59659;41.520;23.794;2023-04-25T05:56:43;1.90;;;1.13;;
71814;SDS011;59659;41.520;23.794;2023-04-25T05:57:54;2.03;;;1.15;;
71814;SDS011;59659;41.520;23.794;2023-04-25T05:59:06;4.97;;;1.52;;
71814;SDS011;59659;41.520;23.794;2023-04-25T06:00:17;2.63;;;1.40;;
71814;SDS011;59659;41.520;23.794;2023-04-25T06:01:30;2.38;;;1.40;;
71814;SDS011;59659;41.520;23.794;2023-04-25T06:02:41;2.67;;;1.70;;
71814;SDS011;59659;41.520;23.794;2023-04-25T06:03:54;1.50;;;1.35;;
71814;SDS011;59659;41.520;23.794;2023-04-25T06:05:06;2.38;;;1.45;;
71814;SDS011;59659;41.520;23.794;2023-04-25T06:06:18;3.70;;;2.08;;
71814;SDS011;59659;41.520;23.794;2023-04-25T06:07:29;2.50;;;1.70;;
71814;SDS011;59659;41.520;23.794;2023-04-25T06:08:42;1.95;;;1.30;;
71814;SDS011;59659;41.520;23.794;2023-04-25T06:09:53;3.33;;;1.58;;
71814;SDS011;59659;41.520;23.794;2023-04-25T06:11:04;3.47;;;2.00;;
71814;SDS011;59659;41.520;23.794;2023-04-25T06:12:16;3.15;;;1.92;;
71814;SDS011;59659;41.520;23.794;2023-04-25T06:13:27;3.00;;;2.05;;
71814;SDS011;59659;41.520;23.794;2023-04-25T06:14:39;2.40;;;1.75;;
71814;SDS011;59659;41.520;23.794;2023-04-25T06:15:50;3.70;;;1.90;;
71814;SDS011;59659;41.520;23.794;2023-04-25T06:17:02;3.35;;;2.15;;
71814;SDS011;59659;41.520;23.794;2023-04-25T06:18:17;8.20;;;4.40;;
71814;SDS011;59659;41.520;23.794;2023-04-25T06:19:29;10.38;;;3.65;;
71814;SDS011;59659;41.520;23.794;2023-04-25T06:20:40;9.95;;;3.67;;
71814;SDS011;59659;41.520;23.794;2023-04-25T06:21:52;4.55;;;2.97;;
71814;SDS011;59659;41.520;23.794;2023-04-25T06:23:03;4.82;;;2.35;;
71814;SDS011;59659;41.520;23.794;2023-04-25T06:24:14;8.07;;;4.97;;
71814;SDS011;59659;41.520;23.794;2023-04-25T06:25:26;7.30;;;3.55;;
71814;SDS011;59659;41.520;23.794;2023-04-25T06:26:37;4.57;;;2.83;;
71814;SDS011;59659;41.520;23.794;2023-04-25T06:27:49;3.28;;;2.33;;
71814;SDS011;59659;41.520;23.794;2023-04-25T06:29:00;3.65;;;2.25;;
71814;SDS011;59659;41.520;23.794;2023-04-25T06:30:12;3.28;;;2.15;;
71814;SDS011;59659;41.520;23.794;2023-04-25T06:31:23;9.02;;;2.47;;
71814;SDS011;59659;41.520;23.794;2023-04-25T06:32:35;4.95;;;2.00;;
71814;SDS011;59659;41.520;23.794;2023-04-25T06:33:46;4.95;;;2.20;;
71814;SDS011;59659;41.520;23.794;2023-04-25T06:35:00;12.20;;;5.53;;
71814;SDS011;59659;41.520;23.794;2023-04-25T06:36:11;7.90;;;3.60;;
71814;SDS011;59659;41.520;23.794;2023-04-25T06:37:23;4.30;;;2.70;;
71814;SDS011;59659;41.520;23.794;2023-04-25T06:38:34;6.65;;;3.13;;
71814;SDS011;59659;41.520;23.794;2023-04-25T06:39:46;3.97;;;2.33;;
71814;SDS011;59659;41.520;23.794;2023-04-25T06:40:58;6.07;;;2.60;;
71814;SDS011;59659;41.520;23.794;2023-04-25T06:42:09;7.37;;;3.60;;
71814;SDS011;59659;41.520;23.794;2023-04-25T06:43:21;4.77;;;2.23;;
71814;SDS011;59659;41.520;23.794;2023-04-25T06:44:32;6.73;;;3.17;;
71814;SDS011;59659;41.520;23.794;2023-04-25T06:45:44;4.90;;;1.67;;
71814;SDS011;59659;41.520;23.794;2023-04-25T06:46:58;9.50;;;2.60;;
71814;SDS011;59659;41.520;23.794;2023-04-25T06:48:10;3.33;;;1.90;;
71814;SDS011;59659;41.520;23.794;2023-04-25T06:49:21;5.80;;;3.10;;
71814;SDS011;59659;41.520;23.794;2023-04-25T06:50:33;8.73;;;3.30;;
71814;SDS011;59659;41.520;23.794;2023-04-25T06:51:45;2.30;;;1.63;;
71814;SDS011;59659;41.520;23.794;2023-04-25T06:52:56;2.70;;;2.00;;
71814;SDS011;59659;41.520;23.794;2023-04-25T06:54:08;4.40;;;2.37;;
71814;SDS011;59659;41.520;23.794;2023-04-25T06:55:19;5.27;;;2.50;;
71814;SDS011;59659;41.520;23.794;2023-04-25T06:56:31;4.13;;;2.03;;
71814;SDS011;59659;41.520;23.794;2023-04-25T06:57:42;2.50;;;1.40;;
71814;SDS011;59659;41.520;23.794;2023-04-25T06:58:54;4.27;;;2.40;;
71814;SDS011;59659;41.520;23.794;2023-04-25T07:00:05;2.40;;;1.50;;
71814;SDS011;59659;41.520;23.794;2023-04-25T07:01:20;2.50;;;1.33;;
71814;SDS011;59659;41.520;23.794;2023-04-25T07:02:31;3.47;;;1.77;;
71814;SDS011;59659;41.520;23.794;2023-04-25T07:03:43;2.23;;;1.90;;
71814;SDS011;59659;41.520;23.794;2023-04-25T07:04:55;3.17;;;1.63;;
71814;SDS011;59659;41.520;23.794;2023-04-25T07:06:10;2.23;;;1.43;;